sensor_id;sensor_type;location;lat;lon;timestamp;pressure;altitude;pressure_sealevel;temperature;humidity
64602;BME280;68371;42.630;23.192;2024-01-11T00:00:39;93035.69;;;-7.76;76.87
64602;BME280;68371;42.630;23.192;2024-01-11T00:03:05;93023.38;;;-7.86;77.24
64602;BME280;68371;42.630;23.192;2024-01-11T00:05:34;93073.59;;;-7.54;77.08
64602;BME280;68371;42.630;23.192;2024-01-11T00:08:01;93074.66;;;-7.62;78.29
64602;BME280;68371;42.630;23.192;2024-01-11T00:10:28;93072.06;;;-7.55;77.50
64602;BME280;68371;42.630;23.192;2024-01-11T00:12:55;92999.34;;;-7.96;76.98
64602;BME280;68371;42.630;23.192;2024-01-11T00:15:22;93067.06;;;-7.43;76.54
64602;BME280;68371;42.630;23.192;2024-01-11T00:17:48;93069.44;;;-7.49;78.09
64602;BME280;68371;42.630;23.192;2024-01-11T00:20:15;93065.91;;;-7.48;77.82
64602;BME280;68371;42.630;23.192;2024-01-11T00:22:44;93067.47;;;-7.47;78.29
64602;BME280;68371;42.630;23.192;2024-01-11T00:25:10;93063.69;;;-7.44;77.28
64602;BME280;68371;42.630;23.192;2024-01-11T00:27:38;92844.91;;;-8.93;77.43
64602;BME280;68371;42.630;23.192;2024-01-11T00:30:07;93056.94;;;-7.57;76.97
64602;BME280;68371;42.630;23.192;2024-01-11T00:32:34;93059.13;;;-7.60;76.39
64602;BME280;68371;42.630;23.192;2024-01-11T00:35:01;92995.88;;;-8.09;76.40
64602;BME280;68371;42.630;23.192;2024-01-11T00:37:28;93055.00;;;-7.61;76.79
64602;BME280;68371;42.630;23.192;2024-01-11T00:39:56;93049.75;;;-7.67;77.52
64602;BME280;68371;42.630;23.192;2024-01-11T00:42:23;93055.28;;;-7.70;78.12
64602;BME280;68371;42.630;23.192;2024-01-11T00:44:49;92826.84;;;-9.16;77.47
64602;BME280;68371;42.630;23.192;2024-01-11T00:47:16;93055.28;;;-7.70;77.41
64602;BME280;68371;42.630;23.192;2024-01-11T00:49:43;93050.78;;;-7.74;77.83
64602;BME280;68371;42.630;23.192;2024-01-11T00:52:10;92980.72;;;-8.29;78.73
64602;BME280;68371;42.630;23.192;2024-01-11T00:54:40;93043.75;;;-7.79;78.06
64602;BME280;68371;42.630;23.192;2024-01-11T00:57:08;93042.50;;;-7.70;77.18
64602;BME280;68371;42.630;23.192;2024-01-11T00:59:35;93040.94;;;-7.71;77.89
64602;BME280;68371;42.630;23.192;2024-01-11T01:02:02;92822.38;;;-9.28;77.29
64602;BME280;68371;42.630;23.192;2024-01-11T01:04:29;93048.63;;;-7.77;78.33
64602;BME280;68371;42.630;23.192;2024-01-11T01:06:55;93043.91;;;-7.74;77.84
64602;BME280;68371;42.630;23.192;2024-01-11T01:09:22;92886.34;;;-8.79;77.12
64602;BME280;68371;42.630;23.192;2024-01-11T01:11:49;92981.44;;;-8.21;77.06
64602;BME280;68371;42.630;23.192;2024-01-11T01:14:18;93046.53;;;-7.80;77.33
64602;BME280;68371;42.630;23.192;2024-01-11T01:16:44;93041.16;;;-8.04;76.82
64602;BME280;68371;42.630;23.192;2024-01-11T01:19:11;92984.00;;;-8.53;78.28
64602;BME280;68371;42.630;23.192;2024-01-11T01:21:38;92850.19;;;-9.26;78.91
64602;BME280;68371;42.630;23.192;2024-01-11T01:24:06;92975.91;;;-8.43;77.75
64602;BME280;68371;42.630;23.192;2024-01-11T01:26:33;93041.69;;;-7.95;78.35
64602;BME280;68371;42.630;23.192;2024-01-11T01:28:59;92979.19;;;-8.36;79.55
64602;BME280;68371;42.630;23.192;2024-01-11T01:31:27;93032.97;;;-8.13;79.15
64602;BME280;68371;42.630;23.192;2024-01-11T01:33:55;92956.13;;;-8.48;79.14
64602;BME280;68371;42.630;23.192;2024-01-11T01:36:21;93036.19;;;-7.92;79.12
64602;BME280;68371;42.630;23.192;2024-01-11T01:38:48;92880.00;;;-9.01;76.99
64602;BME280;68371;42.630;23.192;2024-01-11T01:41:15;93036.38;;;-7.94;76.58
64602;BME280;68371;42.630;23.192;2024-01-11T01:43:42;93026.75;;;-7.92;77.71
64602;BME280;68371;42.630;23.192;2024-01-11T01:46:08;93020.84;;;-7.86;77.02
64602;BME280;68371;42.630;23.192;2024-01-11T01:48:37;93015.72;;;-7.86;77.44
64602;BME280;68371;42.630;23.192;2024-01-11T01:51:05;93015.94;;;-7.87;76.79
64602;BME280;68371;42.630;23.192;2024-01-11T01:53:32;93010.63;;;-7.86;77.01
64602;BME280;68371;42.630;23.192;2024-01-11T01:55:59;93010.47;;;-7.91;77.09
64602;BME280;68371;42.630;23.192;2024-01-11T01:58:26;93006.72;;;-7.88;77.47
64602;BME280;68371;42.630;23.192;2024-01-11T02:00:53;93004.59;;;-7.91;77.24
64602;BME280;68371;42.630;23.192;2024-01-11T02:03:20;93001.25;;;-7.92;77.05
64602;BME280;68371;42.630;23.192;2024-01-11T02:05:49;92997.94;;;-7.92;77.47
64602;BME280;68371;42.630;23.192;2024-01-11T02:08:17;92834.22;;;-9.08;78.15
64602;BME280;68371;42.630;23.192;2024-01-11T02:10:48;92994.25;;;-8.03;77.56
64602;BME280;68371;42.630;23.192;2024-01-11T02:13:15;92992.66;;;-7.97;77.29
64602;BME280;68371;42.630;23.192;2024-01-11T02:15:43;92999.34;;;-7.96;76.90
64602;BME280;68371;42.630;23.192;2024-01-11T02:18:11;92992.66;;;-7.97;77.54
64602;BME280;68371;42.630;23.192;2024-01-11T02:20:38;93004.25;;;-8.01;76.91
64602;BME280;68371;42.630;23.192;2024-01-11T02:23:11;92999.59;;;-8.04;77.33
64602;BME280;68371;42.630;23.192;2024-01-11T02:25:41;93000.34;;;-8.04;77.42
64602;BME280;68371;42.630;23.192;2024-01-11T02:28:09;92966.38;;;-8.30;76.20
64602;BME280;68371;42.630;23.192;2024-01-11T02:30:36;92976.31;;;-8.15;75.66
64602;BME280;68371;42.630;23.192;2024-01-11T02:33:04;92998.63;;;-8.10;76.14
64602;BME280;68371;42.630;23.192;2024-01-11T02:35:31;92991.50;;;-8.33;77.20
64602;BME280;68371;42.630;23.192;2024-01-11T02:37:59;92993.41;;;-8.22;77.37
64602;BME280;68371;42.630;23.192;2024-01-11T02:40:27;92964.16;;;-8.44;77.95
64602;BME280;68371;42.630;23.192;2024-01-11T02:42:55;92989.88;;;-8.21;78.26
64602;BME280;68371;42.630;23.192;2024-01-11T02:45:21;92984.53;;;-8.13;77.49
64602;BME280;68371;42.630;23.192;2024-01-11T02:47:48;92987.66;;;-8.11;77.83
64602;BME280;68371;42.630;23.192;2024-01-11T02:50:15;92972.75;;;-8.14;77.21
64602;BME280;68371;42.630;23.192;2024-01-11T02:52:41;92976.25;;;-8.08;77.58
64602;BME280;68371;42.630;23.192;2024-01-11T02:55:09;92975.31;;;-8.14;77.95
64602;BME280;68371;42.630;23.192;2024-01-11T02:57:35;92932.38;;;-8.42;78.60
64602;BME280;68371;42.630;23.192;2024-01-11T03:00:04;92974.94;;;-8.17;78.77
64602;BME280;68371;42.630;23.192;2024-01-11T03:02:31;92969.19;;;-8.06;78.05
64602;BME280;68371;42.630;23.192;2024-01-11T03:04:58;92965.28;;;-8.09;77.77
64602;BME280;68371;42.630;23.192;2024-01-11T03:07:25;92966.06;;;-8.08;76.31
64602;BME280;68371;42.630;23.192;2024-01-11T03:09:51;92922.38;;;-8.43;76.50
64602;BME280;68371;42.630;23.192;2024-01-11T03:12:18;92965.28;;;-8.09;76.36
64602;BME280;68371;42.630;23.192;2024-01-11T03:14:45;92969.97;;;-8.06;77.60
64602;BME280;68371;42.630;23.192;2024-01-11T03:17:13;92973.84;;;-8.03;77.47
64602;BME280;68371;42.630;23.192;2024-01-11T03:19:40;92916.31;;;-8.42;77.56
64602;BME280;68371;42.630;23.192;2024-01-11T03:22:07;92893.63;;;-8.51;77.02
64602;BME280;68371;42.630;23.192;2024-01-11T03:24:37;92950.56;;;-8.07;76.38
64602;BME280;68371;42.630;23.192;2024-01-11T03:27:04;92964.81;;;-7.99;77.31
64602;BME280;68371;42.630;23.192;2024-01-11T03:29:32;92967.72;;;-7.95;77.31
64602;BME280;68371;42.630;23.192;2024-01-11T03:31:58;92965.03;;;-8.00;77.25
64602;BME280;68371;42.630;23.192;2024-01-11T03:34:27;92938.06;;;-8.15;76.78
64602;BME280;68371;42.630;23.192;2024-01-11T03:36:53;92963.84;;;-7.98;77.47
64602;BME280;68371;42.630;23.192;2024-01-11T03:39:20;92880.13;;;-8.51;77.35
64602;BME280;68371;42.630;23.192;2024-01-11T03:41:47;92957.00;;;-8.04;76.60
64602;BME280;68371;42.630;23.192;2024-01-11T03:44:14;92954.66;;;-8.06;76.51
64602;BME280;68371;42.630;23.192;2024-01-11T03:46:42;92915.00;;;-8.27;77.09
64602;BME280;68371;42.630;23.192;2024-01-11T03:49:08;92950.06;;;-7.97;77.45
64602;BME280;68371;42.630;23.192;2024-01-11T03:51:37;92946.19;;;-7.99;77.66
64602;BME280;68371;42.630;23.192;2024-01-11T03:54:04;92929.69;;;-8.22;77.84
64602;BME280;68371;42.630;23.192;2024-01-11T03:56:31;92949.16;;;-8.02;77.83
64602;BME280;68371;42.630;23.192;2024-01-11T03:58:57;92954.41;;;-7.97;77.16
64602;BME280;68371;42.630;23.192;2024-01-11T04:01:24;92951.91;;;-8.04;77.57
64602;BME280;68371;42.630;23.192;2024-01-11T04:03:51;92951.72;;;-8.02;76.81
64602;BME280;68371;42.630;23.192;2024-01-11T04:06:21;92951.16;;;-8.11;77.56
64602;BME280;68371;42.630;23.192;2024-01-11T04:08:50;92953.31;;;-8.08;77.93
64602;BME280;68371;42.630;23.192;2024-01-11T04:11:18;92946.88;;;-8.11;76.74
64602;BME280;68371;42.630;23.192;2024-01-11T04:13:44;92663.13;;;-10.05;75.92
64602;BME280;68371;42.630;23.192;2024-01-11T04:16:11;92935.53;;;-8.21;76.91
64602;BME280;68371;42.630;23.192;2024-01-11T04:18:38;92925.84;;;-8.31;77.43
64602;BME280;68371;42.630;23.192;2024-01-11T04:21:05;92927.31;;;-8.23;77.66
64602;BME280;68371;42.630;23.192;2024-01-11T04:23:33;92927.69;;;-8.20;78.29
64602;BME280;68371;42.630;23.192;2024-01-11T04:26:01;92915.25;;;-8.35;77.96
64602;BME280;68371;42.630;23.192;2024-01-11T04:28:28;92763.34;;;-9.43;77.73
64602;BME280;68371;42.630;23.192;2024-01-11T04:30:55;92920.75;;;-8.31;77.29
64602;BME280;68371;42.630;23.192;2024-01-11T04:33:21;92784.44;;;-9.36;78.05
64602;BME280;68371;42.630;23.192;2024-01-11T04:35:48;92920.00;;;-8.38;78.67
64602;BME280;68371;42.630;23.192;2024-01-11T04:38:15;92928.00;;;-8.35;78.18
64602;BME280;68371;42.630;23.192;2024-01-11T04:40:42;92674.00;;;-9.92;77.60
64602;BME280;68371;42.630;23.192;2024-01-11T04:43:10;92925.84;;;-8.31;77.79
64602;BME280;68371;42.630;23.192;2024-01-11T04:45:37;92928.38;;;-8.31;78.88
64602;BME280;68371;42.630;23.192;2024-01-11T04:48:04;92925.47;;;-8.35;79.00
64602;BME280;68371;42.630;23.192;2024-01-11T04:50:31;92931.59;;;-8.42;78.71
64602;BME280;68371;42.630;23.192;2024-01-11T04:52:58;92920.66;;;-8.50;78.66
64602;BME280;68371;42.630;23.192;2024-01-11T04:55:25;92729.81;;;-9.72;78.45
64602;BME280;68371;42.630;23.192;2024-01-11T04:57:51;92936.22;;;-8.33;77.84
64602;BME280;68371;42.630;23.192;2024-01-11T05:00:21;92850.13;;;-8.81;78.03
64602;BME280;68371;42.630;23.192;2024-01-11T05:02:47;92936.38;;;-8.28;77.70
64602;BME280;68371;42.630;23.192;2024-01-11T05:05:15;92687.31;;;-9.96;77.57
64602;BME280;68371;42.630;23.192;2024-01-11T05:07:42;92923.97;;;-8.42;78.54
64602;BME280;68371;42.630;23.192;2024-01-11T05:10:08;92925.09;;;-8.38;79.21
64602;BME280;68371;42.630;23.192;2024-01-11T05:12:35;92926.22;;;-8.34;79.04
64602;BME280;68371;42.630;23.192;2024-01-11T05:15:04;92847.78;;;-8.82;78.71
64602;BME280;68371;42.630;23.192;2024-01-11T05:17:33;92846.22;;;-8.83;78.42
64602;BME280;68371;42.630;23.192;2024-01-11T05:19:59;92918.53;;;-8.28;77.50
64602;BME280;68371;42.630;23.192;2024-01-11T05:22:26;92906.94;;;-8.23;77.86
64602;BME280;68371;42.630;23.192;2024-01-11T05:24:53;92906.16;;;-8.24;77.67
64602;BME280;68371;42.630;23.192;2024-01-11T05:27:18;92824.91;;;-8.89;77.78
64602;BME280;68371;42.630;23.192;2024-01-11T05:29:46;92913.97;;;-8.19;78.06
64602;BME280;68371;42.630;23.192;2024-01-11T05:32:12;92782.28;;;-9.00;77.11
64602;BME280;68371;42.630;23.192;2024-01-11T05:34:41;92898.31;;;-8.22;77.70
64602;BME280;68371;42.630;23.192;2024-01-11T05:37:08;92891.63;;;-8.23;77.33
64602;BME280;68371;42.630;23.192;2024-01-11T05:39:34;92709.34;;;-9.45;77.11
64602;BME280;68371;42.630;23.192;2024-01-11T05:42:01;92900.50;;;-8.26;76.65
64602;BME280;68371;42.630;23.192;2024-01-11T05:44:28;92772.00;;;-9.12;77.32
64602;BME280;68371;42.630;23.192;2024-01-11T05:46:55;92870.66;;;-8.44;78.10
64602;BME280;68371;42.630;23.192;2024-01-11T05:49:22;92899.50;;;-8.25;77.71
64602;BME280;68371;42.630;23.192;2024-01-11T05:51:51;92831.28;;;-8.80;77.59
64602;BME280;68371;42.630;23.192;2024-01-11T05:54:18;92903.38;;;-8.41;77.74
64602;BME280;68371;42.630;23.192;2024-01-11T05:56:45;92903.38;;;-8.41;77.90
64602;BME280;68371;42.630;23.192;2024-01-11T05:59:12;92898.78;;;-8.32;77.99
64602;BME280;68371;42.630;23.192;2024-01-11T06:01:40;92898.41;;;-8.36;78.24
64602;BME280;68371;42.630;23.192;2024-01-11T06:04:08;92893.88;;;-8.34;78.65
64602;BME280;68371;42.630;23.192;2024-01-11T06:06:34;92896.03;;;-8.31;77.70
64602;BME280;68371;42.630;23.192;2024-01-11T06:09:02;92894.66;;;-8.33;77.45
64602;BME280;68371;42.630;23.192;2024-01-11T06:11:30;92870.53;;;-8.56;77.71
64602;BME280;68371;42.630;23.192;2024-01-11T06:13:57;92901.50;;;-8.34;77.89
64602;BME280;68371;42.630;23.192;2024-01-11T06:16:24;92901.50;;;-8.27;78.11
64602;BME280;68371;42.630;23.192;2024-01-11T06:18:50;92818.94;;;-8.76;78.46
64602;BME280;68371;42.630;23.192;2024-01-11T06:21:18;92705.69;;;-9.56;77.78
64602;BME280;68371;42.630;23.192;2024-01-11T06:23:45;92823.38;;;-8.97;78.16
64602;BME280;68371;42.630;23.192;2024-01-11T06:26:13;92840.50;;;-8.79;78.89
64602;BME280;68371;42.630;23.192;2024-01-11T06:28:39;92651.72;;;-9.96;79.04
64602;BME280;68371;42.630;23.192;2024-01-11T06:31:06;92889.66;;;-8.21;78.34
64602;BME280;68371;42.630;23.192;2024-01-11T06:33:33;92889.66;;;-8.21;77.75
64602;BME280;68371;42.630;23.192;2024-01-11T06:36:02;92884.41;;;-8.27;78.42
64602;BME280;68371;42.630;23.192;2024-01-11T06:38:29;92817.97;;;-8.07;87.66
64602;BME280;68371;42.630;23.192;2024-01-11T06:40:56;92733.47;;;-8.47;81.90
64602;BME280;68371;42.630;23.192;2024-01-11T06:43:25;92809.19;;;-7.92;78.17
64602;BME280;68371;42.630;23.192;2024-01-11T06:45:52;92881.91;;;-7.46;77.38
64602;BME280;68371;42.630;23.192;2024-01-11T06:48:20;92847.97;;;-7.65;76.53
64602;BME280;68371;42.630;23.192;2024-01-11T06:50:48;92871.69;;;-7.46;76.29
64602;BME280;68371;42.630;23.192;2024-01-11T06:53:15;92873.47;;;-7.47;77.31
64602;BME280;68371;42.630;23.192;2024-01-11T06:55:41;92864.91;;;-7.52;77.96
64602;BME280;68371;42.630;23.192;2024-01-11T06:58:09;92870.81;;;-7.52;77.21
64602;BME280;68371;42.630;23.192;2024-01-11T07:00:37;92836.78;;;-7.82;77.36
64602;BME280;68371;42.630;23.192;2024-01-11T07:03:08;92872.84;;;-7.60;77.02
64602;BME280;68371;42.630;23.192;2024-01-11T07:05:35;92834.63;;;-7.86;77.43
64602;BME280;68371;42.630;23.192;2024-01-11T07:08:03;92871.84;;;-7.59;77.90
64602;BME280;68371;42.630;23.192;2024-01-11T07:10:30;92877.31;;;-7.56;78.34
64602;BME280;68371;42.630;23.192;2024-01-11T07:12:57;92840.94;;;-7.70;78.89
64602;BME280;68371;42.630;23.192;2024-01-11T07:15:25;92864.13;;;-7.53;79.43
64602;BME280;68371;42.630;23.192;2024-01-11T07:17:53;92846.91;;;-7.76;79.37
64602;BME280;68371;42.630;23.192;2024-01-11T07:20:20;92873.34;;;-7.52;80.00
64602;BME280;68371;42.630;23.192;2024-01-11T07:22:47;92855.69;;;-7.53;81.03
64602;BME280;68371;42.630;23.192;2024-01-11T07:25:14;92872.78;;;-7.35;81.65
64602;BME280;68371;42.630;23.192;2024-01-11T07:27:41;92662.06;;;-8.59;82.40
64602;BME280;68371;42.630;23.192;2024-01-11T07:30:10;92868.22;;;-7.15;82.81
64602;BME280;68371;42.630;23.192;2024-01-11T07:32:37;92863.69;;;-7.13;83.13
64602;BME280;68371;42.630;23.192;2024-01-11T07:35:07;92564.97;;;-9.06;83.17
64602;BME280;68371;42.630;23.192;2024-01-11T07:37:36;92855.88;;;-6.99;85.15
64602;BME280;68371;42.630;23.192;2024-01-11T07:40:03;92865.03;;;-6.80;85.53
64602;BME280;68371;42.630;23.192;2024-01-11T07:42:30;92864.72;;;-6.72;85.45
64602;BME280;68371;42.630;23.192;2024-01-11T07:44:57;92862.41;;;-6.61;84.59
64602;BME280;68371;42.630;23.192;2024-01-11T07:47:24;92854.22;;;-6.52;84.48
64602;BME280;68371;42.630;23.192;2024-01-11T07:49:52;92850.25;;;-6.36;85.04
64602;BME280;68371;42.630;23.192;2024-01-11T07:52:20;92850.94;;;-6.17;85.29
64602;BME280;68371;42.630;23.192;2024-01-11T07:54:46;92850.75;;;-6.03;86.23
64602;BME280;68371;42.630;23.192;2024-01-11T07:57:13;92850.41;;;-5.95;87.14
64602;BME280;68371;42.630;23.192;2024-01-11T07:59:40;92821.94;;;-5.99;87.34
64602;BME280;68371;42.630;23.192;2024-01-11T08:02:07;92848.25;;;-5.51;87.84
64602;BME280;68371;42.630;23.192;2024-01-11T08:04:33;92802.06;;;-5.68;87.19
64602;BME280;68371;42.630;23.192;2024-01-11T08:07:00;92679.09;;;-6.42;86.62
64602;BME280;68371;42.630;23.192;2024-01-11T08:09:28;92833.47;;;-5.20;86.93
64602;BME280;68371;42.630;23.192;2024-01-11T08:11:57;92829.22;;;-5.15;87.31
64602;BME280;68371;42.630;23.192;2024-01-11T08:14:24;92730.13;;;-5.84;87.66
64602;BME280;68371;42.630;23.192;2024-01-11T08:16:51;92829.41;;;-5.05;87.08
64602;BME280;68371;42.630;23.192;2024-01-11T08:19:18;92827.03;;;-4.94;87.10
64602;BME280;68371;42.630;23.192;2024-01-11T08:21:45;92723.63;;;-5.46;87.01
64602;BME280;68371;42.630;23.192;2024-01-11T08:24:12;92793.91;;;-4.84;87.23
64602;BME280;68371;42.630;23.192;2024-01-11T08:26:40;92818.47;;;-4.54;87.01
64602;BME280;68371;42.630;23.192;2024-01-11T08:29:07;92784.06;;;-4.58;86.82
64602;BME280;68371;42.630;23.192;2024-01-11T08:31:34;92751.03;;;-4.72;86.66
64602;BME280;68371;42.630;23.192;2024-01-11T08:34:01;92736.75;;;-4.68;86.76
64602;BME280;68371;42.630;23.192;2024-01-11T08:36:31;92812.25;;;-4.08;87.00
64602;BME280;68371;42.630;23.192;2024-01-11T08:38:58;92652.69;;;-4.99;86.98
64602;BME280;68371;42.630;23.192;2024-01-11T08:41:25;92685.69;;;-4.69;86.57
64602;BME280;68371;42.630;23.192;2024-01-11T08:43:53;92828.09;;;-3.60;86.15
64602;BME280;68371;42.630;23.192;2024-01-11T08:46:23;92820.75;;;-3.51;85.54
64602;BME280;68371;42.630;23.192;2024-01-11T08:48:51;92824.81;;;-3.33;84.60
64602;BME280;68371;42.630;23.192;2024-01-11T08:51:17;92765.97;;;-3.57;83.26
64602;BME280;68371;42.630;23.192;2024-01-11T08:53:44;92816.28;;;-3.17;82.43
64602;BME280;68371;42.630;23.192;2024-01-11T08:56:11;92812.31;;;-3.03;81.33
64602;BME280;68371;42.630;23.192;2024-01-11T08:58:39;92810.34;;;-2.95;80.89
64602;BME280;68371;42.630;23.192;2024-01-11T09:01:07;92806.59;;;-2.83;80.29
64602;BME280;68371;42.630;23.192;2024-01-11T09:03:34;92812.16;;;-2.69;79.37
64602;BME280;68371;42.630;23.192;2024-01-11T09:06:02;92800.16;;;-2.58;79.90
64602;BME280;68371;42.630;23.192;2024-01-11T09:08:29;92747.88;;;-2.96;79.04
64602;BME280;68371;42.630;23.192;2024-01-11T09:10:56;92791.50;;;-2.47;78.88
64602;BME280;68371;42.630;23.192;2024-01-11T09:13:25;92801.88;;;-2.36;77.58
64602;BME280;68371;42.630;23.192;2024-01-11T09:15:52;92535.00;;;-3.96;75.88
64602;BME280;68371;42.630;23.192;2024-01-11T09:18:21;92783.63;;;-2.35;75.01
64602;BME280;68371;42.630;23.192;2024-01-11T09:20:48;92627.47;;;-3.36;75.34
64602;BME280;68371;42.630;23.192;2024-01-11T09:23:15;92784.78;;;-2.15;71.57
64602;BME280;68371;42.630;23.192;2024-01-11T09:25:43;92789.22;;;-2.11;68.18
64602;BME280;68371;42.630;23.192;2024-01-11T09:28:10;92781.28;;;-2.04;71.18
64602;BME280;68371;42.630;23.192;2024-01-11T09:30:37;92526.50;;;-3.69;69.32
64602;BME280;68371;42.630;23.192;2024-01-11T09:33:04;92781.56;;;-2.00;70.83
64602;BME280;68371;42.630;23.192;2024-01-11T09:35:33;92756.75;;;-2.12;68.68
64602;BME280;68371;42.630;23.192;2024-01-11T09:38:00;92771.34;;;-1.85;69.15
64602;BME280;68371;42.630;23.192;2024-01-11T09:40:26;92766.47;;;-1.82;68.55
64602;BME280;68371;42.630;23.192;2024-01-11T09:42:54;92709.47;;;-2.00;68.62
64602;BME280;68371;42.630;23.192;2024-01-11T09:45:21;92698.13;;;-2.05;68.06
64602;BME280;68371;42.630;23.192;2024-01-11T09:47:49;92680.06;;;-2.10;67.37
64602;BME280;68371;42.630;23.192;2024-01-11T09:50:17;92623.81;;;-2.38;65.20
64602;BME280;68371;42.630;23.192;2024-01-11T09:52:47;92738.78;;;-1.49;66.90
64602;BME280;68371;42.630;23.192;2024-01-11T09:55:15;92604.75;;;-2.43;64.75
64602;BME280;68371;42.630;23.192;2024-01-11T09:57:44;92745.81;;;-1.34;66.11
64602;BME280;68371;42.630;23.192;2024-01-11T10:00:13;92740.19;;;-1.26;65.10
64602;BME280;68371;42.630;23.192;2024-01-11T10:02:44;92689.31;;;-1.51;66.78
64602;BME280;68371;42.630;23.192;2024-01-11T10:05:11;92737.09;;;-1.28;65.77
64602;BME280;68371;42.630;23.192;2024-01-11T10:07:39;92624.06;;;-1.82;65.13
64602;BME280;68371;42.630;23.192;2024-01-11T10:10:08;92732.19;;;-1.24;63.14
64602;BME280;68371;42.630;23.192;2024-01-11T10:12:36;92729.13;;;-1.11;64.88
64602;BME280;68371;42.630;23.192;2024-01-11T10:15:06;92723.72;;;-1.04;65.49
64602;BME280;68371;42.630;23.192;2024-01-11T10:17:35;92672.66;;;-1.17;64.61
64602;BME280;68371;42.630;23.192;2024-01-11T10:20:02;92715.00;;;-0.72;65.98
64602;BME280;68371;42.630;23.192;2024-01-11T10:22:31;92527.97;;;-1.83;63.12
64602;BME280;68371;42.630;23.192;2024-01-11T10:25:14;92691.78;;;-0.52;62.98
64602;BME280;68371;42.630;23.192;2024-01-11T10:27:44;92709.06;;;-0.22;63.25
64602;BME280;68371;42.630;23.192;2024-01-11T10:30:12;92701.28;;;-0.16;59.98
64602;BME280;68371;42.630;23.192;2024-01-11T10:32:41;92697.63;;;0.10;59.61
64602;BME280;68371;42.630;23.192;2024-01-11T10:35:08;92697.78;;;0.34;58.98
64602;BME280;68371;42.630;23.192;2024-01-11T10:37:36;92683.81;;;0.51;59.93
64602;BME280;68371;42.630;23.192;2024-01-11T10:40:06;92678.34;;;0.57;59.11
64602;BME280;68371;42.630;23.192;2024-01-11T10:42:41;92658.69;;;0.56;58.21
64602;BME280;68371;42.630;23.192;2024-01-11T10:45:14;92671.03;;;0.70;56.94
64602;BME280;68371;42.630;23.192;2024-01-11T10:47:49;92664.03;;;0.75;57.68
64602;BME280;68371;42.630;23.192;2024-01-11T10:50:18;92633.25;;;0.74;58.82
64602;BME280;68371;42.630;23.192;2024-01-11T10:52:54;92661.06;;;0.92;58.13
64602;BME280;68371;42.630;23.192;2024-01-11T10:55:24;92657.78;;;0.82;58.13
64602;BME280;68371;42.630;23.192;2024-01-11T10:57:54;92614.25;;;0.49;58.90
64602;BME280;68371;42.630;23.192;2024-01-11T11:00:23;92650.22;;;0.85;60.53
64602;BME280;68371;42.630;23.192;2024-01-11T11:02:51;92648.94;;;0.88;59.51
64602;BME280;68371;42.630;23.192;2024-01-11T11:05:19;92608.16;;;0.74;58.53
64602;BME280;68371;42.630;23.192;2024-01-11T11:07:48;92602.84;;;0.95;58.09
64602;BME280;68371;42.630;23.192;2024-01-11T11:10:17;92492.75;;;0.49;60.04
64602;BME280;68371;42.630;23.192;2024-01-11T11:12:45;92568.09;;;1.06;60.03
64602;BME280;68371;42.630;23.192;2024-01-11T11:15:13;92618.16;;;1.55;60.25
64602;BME280;68371;42.630;23.192;2024-01-11T11:17:42;92618.88;;;1.60;58.92
64602;BME280;68371;42.630;23.192;2024-01-11T11:20:11;92613.00;;;1.79;59.02
64602;BME280;68371;42.630;23.192;2024-01-11T11:22:40;92605.44;;;1.83;60.49
64602;BME280;68371;42.630;23.192;2024-01-11T11:25:08;92601.41;;;1.95;60.30
64602;BME280;68371;42.630;23.192;2024-01-11T11:27:36;92472.69;;;1.24;59.94
64602;BME280;68371;42.630;23.192;2024-01-11T11:30:04;92582.06;;;1.88;59.85
64602;BME280;68371;42.630;23.192;2024-01-11T11:32:42;92523.75;;;1.66;59.62
64602;BME280;68371;42.630;23.192;2024-01-11T11:35:09;92483.16;;;1.62;58.51
64602;BME280;68371;42.630;23.192;2024-01-11T11:37:36;92574.78;;;2.14;58.83
64602;BME280;68371;42.630;23.192;2024-01-11T11:40:05;92429.53;;;1.43;60.52
64602;BME280;68371;42.630;23.192;2024-01-11T11:42:34;92545.63;;;2.22;57.49
64602;BME280;68371;42.630;23.192;2024-01-11T11:45:01;92556.81;;;2.42;59.36
64602;BME280;68371;42.630;23.192;2024-01-11T11:47:34;92477.91;;;1.91;57.29
64602;BME280;68371;42.630;23.192;2024-01-11T11:50:08;92557.44;;;2.33;57.15
64602;BME280;68371;42.630;23.192;2024-01-11T11:52:37;92480.75;;;1.89;56.85
64602;BME280;68371;42.630;23.192;2024-01-11T11:55:06;92381.47;;;1.13;57.76
64602;BME280;68371;42.630;23.192;2024-01-11T11:57:34;92550.56;;;2.43;57.82
64602;BME280;68371;42.630;23.192;2024-01-11T12:00:01;92547.91;;;2.48;57.00
64602;BME280;68371;42.630;23.192;2024-01-11T12:02:31;92513.22;;;2.44;57.77
64602;BME280;68371;42.630;23.192;2024-01-11T12:05:01;92542.97;;;2.84;56.53
64602;BME280;68371;42.630;23.192;2024-01-11T12:07:31;92543.16;;;2.88;55.73
64602;BME280;68371;42.630;23.192;2024-01-11T12:09:58;92534.47;;;2.78;56.34
64602;BME280;68371;42.630;23.192;2024-01-11T12:12:25;92539.09;;;2.81;55.92
64602;BME280;68371;42.630;23.192;2024-01-11T12:14:53;92414.94;;;2.09;56.95
64602;BME280;68371;42.630;23.192;2024-01-11T12:17:20;92508.09;;;2.90;56.76
64602;BME280;68371;42.630;23.192;2024-01-11T12:19:46;92519.06;;;3.01;58.49
64602;BME280;68371;42.630;23.192;2024-01-11T12:22:13;92420.50;;;2.35;57.99
64602;BME280;68371;42.630;23.192;2024-01-11T12:24:42;92377.47;;;2.34;58.43
64602;BME280;68371;42.630;23.192;2024-01-11T12:27:08;92516.16;;;3.35;57.81
64602;BME280;68371;42.630;23.192;2024-01-11T12:29:35;92457.91;;;2.81;55.92
64602;BME280;68371;42.630;23.192;2024-01-11T12:32:05;92513.09;;;3.33;56.19
64602;BME280;68371;42.630;23.192;2024-01-11T12:34:36;92506.63;;;3.17;55.32
64602;BME280;68371;42.630;23.192;2024-01-11T12:37:05;92488.28;;;2.80;56.17
64602;BME280;68371;42.630;23.192;2024-01-11T12:39:37;92428.34;;;2.30;56.36
64602;BME280;68371;42.630;23.192;2024-01-11T12:42:06;92494.88;;;2.21;58.06
64602;BME280;68371;42.630;23.192;2024-01-11T12:44:34;92246.31;;;0.59;58.72
64602;BME280;68371;42.630;23.192;2024-01-11T12:47:04;92489.22;;;2.33;59.57
64602;BME280;68371;42.630;23.192;2024-01-11T12:49:32;92443.22;;;1.87;59.34
64602;BME280;68371;42.630;23.192;2024-01-11T12:51:59;92487.41;;;2.14;60.67
64602;BME280;68371;42.630;23.192;2024-01-11T12:54:26;92452.00;;;1.91;60.71